| time (UTC) | temp F | wind direction | speed MPH | gust MPH | rain 1hr in | rain 24hr in | rain mn in | humidity % | barometer mb |
| 20260509201340 | 61 | 341 | 2.0 | 6.0 | 0.00 | 0.10 | 0.10 | 80 | 1009.5 |
| 20260509200832 | 60 | 335 | 2.0 | 5.0 | 0.00 | 0.10 | 0.10 | 79 | 1009.4 |
| 20260509200328 | 60 | 331 | 1.0 | 5.0 | 0.00 | 0.10 | 0.10 | 80 | 1009.5 |
| 20260509195822 | 60 | 5 | 2.0 | 4.0 | 0.00 | 0.10 | 0.10 | 82 | 1009.5 |
| 20260509195316 | 60 | 9 | 1.0 | 3.0 | 0.01 | 0.10 | 0.10 | 82 | 1009.6 |
| 20260509194814 | 59 | 9 | 1.0 | 5.0 | 0.01 | 0.10 | 0.10 | 82 | 1009.5 |
| 20260509194304 | 59 | 9 | 2.0 | 5.0 | 0.01 | 0.10 | 0.10 | 82 | 1009.5 |
| 20260509193759 | 59 | 9 | 2.0 | 5.0 | 0.01 | 0.10 | 0.10 | 83 | 1009.4 |
| 20260509193252 | 59 | 5 | 1.0 | 4.0 | 0.01 | 0.10 | 0.10 | 85 | 1009.5 |
| 20260509193009 | 58 | 5 | 0.0 | 3.0 | 0.01 | 0.10 | 0.10 | 85 | 1009.7 |
| 20260509192238 | 58 | 5 | 0.0 | 3.0 | 0.01 | 0.10 | 0.10 | 86 | 1009.7 |
| 20260509191734 | 58 | 5 | 0.0 | 3.0 | 0.01 | 0.10 | 0.10 | 86 | 1009.9 |
| 20260509191319 | 58 | 5 | 1.0 | 4.0 | 0.01 | 0.10 | 0.10 | 86 | 1010.1 |
| 20260509190721 | 58 | 5 | 1.0 | 4.0 | 0.01 | 0.10 | 0.10 | 87 | 1010.4 |
| 20260509190703 | 57 | 5 | 1.0 | 4.0 | 0.01 | 0.10 | 0.10 | 86 | 1010.3 |
| 20260509185708 | 57 | 331 | 0.0 | 3.0 | 0.01 | 0.10 | 0.10 | 86 | 1010.5 |
| 20260509185204 | 57 | 330 | 1.0 | 3.0 | 0.00 | 0.09 | 0.09 | 85 | 1010.7 |
| 20260509184658 | 57 | 330 | 0.0 | 3.0 | 0.00 | 0.09 | 0.09 | 84 | 1010.7 |
| 20260509184151 | 57 | 330 | 0.0 | 3.0 | 0.00 | 0.09 | 0.09 | 86 | 1010.8 |
| 20260509183647 | 57 | 330 | 1.0 | 3.0 | 0.00 | 0.09 | 0.09 | 84 | 1010.7 |
| 20260509183140 | 57 | 330 | 1.0 | 4.0 | 0.00 | 0.09 | 0.09 | 84 | 1010.8 |
| 20260509182634 | 57 | 330 | 1.0 | 4.0 | 0.00 | 0.09 | 0.09 | 84 | 1010.8 |
| 20260509182128 | 57 | 330 | 2.0 | 5.0 | 0.00 | 0.09 | 0.09 | 84 | 1010.9 |
| 20260509182112 | 57 | 329 | 2.0 | 5.0 | 0.00 | 0.09 | 0.09 | 84 | 1011.0 |
| 20260509181129 | 57 | 325 | 2.0 | 5.0 | 0.00 | 0.09 | 0.09 | 84 | 1011.1 |
| 20260509180610 | 57 | 323 | 2.0 | 4.0 | 0.00 | 0.09 | 0.09 | 83 | 1011.1 |
| 20260509180117 | 57 | 321 | 2.0 | 5.0 | 0.00 | 0.09 | 0.09 | 84 | 1011.2 |
| 20260509175607 | 57 | 348 | 1.0 | 5.0 | 0.00 | 0.09 | 0.09 | 84 | 1011.2 |
| 20260509175104 | 57 | 355 | 1.0 | 4.0 | 0.00 | 0.09 | 0.09 | 84 | 1011.2 |
| 20260509174823 | 57 | 355 | 2.0 | 5.0 | 0.00 | 0.09 | 0.09 | 83 | 1011.3 |
| 20260509174105 | 57 | 355 | 2.0 | 6.0 | 0.00 | 0.09 | 0.09 | 83 | 1011.1 |
| 20260509173604 | 57 | 336 | 2.0 | 6.0 | 0.00 | 0.09 | 0.09 | 83 | 1011.3 |
| 20260509173101 | 58 | 336 | 2.0 | 5.0 | 0.00 | 0.09 | 0.09 | 83 | 1011.2 |
| 20260509172602 | 58 | 227 | 1.0 | 3.0 | 0.00 | 0.09 | 0.09 | 85 | 1011.2 |
| 20260509172101 | 57 | 225 | 0.0 | 3.0 | 0.00 | 0.09 | 0.09 | 86 | 1011.2 |
| 20260509171604 | 57 | 225 | 0.0 | 3.0 | 0.00 | 0.09 | 0.09 | 85 | 1011.3 |
| 20260509171100 | 57 | 225 | 0.0 | 2.0 | 0.00 | 0.09 | 0.09 | 85 | 1011.3 |
| 20260509170558 | 57 | 225 | 1.0 | 3.0 | 0.00 | 0.09 | 0.09 | 84 | 1011.5 |
| 20260509165555 | 58 | 225 | 1.0 | 4.0 | 0.00 | 0.09 | 0.09 | 84 | 1011.3 |
| 20260509165056 | 58 | 219 | 1.0 | 3.0 | 0.01 | 0.09 | 0.09 | 82 | 1011.3 |
| 20260509164559 | 58 | 219 | 1.0 | 3.0 | 0.01 | 0.09 | 0.09 | 83 | 1011.3 |
| 20260509164058 | 59 | 219 | 1.0 | 2.0 | 0.01 | 0.09 | 0.09 | 83 | 1011.3 |
| 20260509163556 | 59 | 219 | 1.0 | 2.0 | 0.01 | 0.09 | 0.09 | 82 | 1011.3 |
| 20260509163328 | 59 | 219 | 1.0 | 3.0 | 0.02 | 0.09 | 0.09 | 82 | 1011.2 |
| 20260509162550 | 59 | 219 | 0.0 | 3.0 | 0.02 | 0.09 | 0.09 | 83 | 1011.1 |
| 20260509162044 | 59 | 219 | 0.0 | 3.0 | 0.03 | 0.09 | 0.09 | 84 | 1011.0 |
| 20260509161800 | 58 | 219 | 0.0 | 1.0 | 0.04 | 0.09 | 0.09 | 83 | 1010.8 |
| 20260509161031 | 58 | 219 | 0.0 | 1.0 | 0.04 | 0.09 | 0.09 | 83 | 1010.8 |
| 20260509160527 | 57 | 219 | 0.0 | 1.0 | 0.05 | 0.09 | 0.09 | 84 | 1010.9 |
| 20260509160020 | 57 | 219 | 0.0 | 3.0 | 0.05 | 0.09 | 0.09 | 87 | 1011.1 |
| 20260509155514 | 57 | 219 | 1.0 | 3.0 | 0.06 | 0.09 | 0.09 | 89 | 1011.2 |
| 20260509155228 | 57 | 218 | 1.0 | 3.0 | 0.05 | 0.08 | 0.08 | 89 | 1011.2 |
| 20260509154502 | 57 | 218 | 1.0 | 3.0 | 0.06 | 0.08 | 0.08 | 89 | 1011.3 |
| 20260509153954 | 57 | 217 | 1.0 | 3.0 | 0.06 | 0.08 | 0.08 | 89 | 1011.5 |
| 20260509153938 | 57 | 217 | 0.0 | 3.0 | 0.05 | 0.07 | 0.07 | 89 | 1011.8 |
| 20260509152943 | 57 | 216 | 1.0 | 3.0 | 0.06 | 0.07 | 0.07 | 89 | 1011.8 |
| 20260509152437 | 57 | 216 | 1.0 | 3.0 | 0.05 | 0.06 | 0.06 | 88 | 1011.9 |
| 20260509151931 | 58 | 215 | 1.0 | 3.0 | 0.06 | 0.06 | 0.06 | 88 | 1012.1 |
| 20260509151428 | 58 | 215 | 0.0 | 3.0 | 0.05 | 0.05 | 0.05 | 88 | 1012.1 |
| 20260509150919 | 58 | 215 | 1.0 | 4.0 | 0.05 | 0.05 | 0.05 | 87 | 1012.0 |
| 20260509150413 | 58 | 215 | 1.0 | 4.0 | 0.04 | 0.04 | 0.04 | 87 | 1012.1 |
| 20260509145907 | 58 | 232 | 1.0 | 4.0 | 0.04 | 0.04 | 0.04 | 87 | 1012.0 |
| 20260509145401 | 58 | 232 | 1.0 | 7.0 | 0.03 | 0.03 | 0.03 | 86 | 1011.9 |
| 20260509144857 | 58 | 215 | 1.0 | 7.0 | 0.03 | 0.03 | 0.03 | 86 | 1012.0 |
| 20260509144351 | 58 | 206 | 2.0 | 6.0 | 0.02 | 0.02 | 0.02 | 86 | 1011.7 |
| 20260509143843 | 58 | 207 | 2.0 | 6.0 | 0.02 | 0.02 | 0.02 | 85 | 1011.7 |
| 20260509143339 | 58 | 188 | 2.0 | 5.0 | 0.02 | 0.02 | 0.02 | 84 | 1011.7 |
| 20260509142831 | 58 | 198 | 2.0 | 6.0 | 0.01 | 0.01 | 0.01 | 82 | 1011.7 |
| 20260509142328 | 59 | 196 | 3.0 | 7.0 | 0.00 | 0.00 | 0.00 | 81 | 1011.6 |
| 20260509142307 | 59 | 236 | 3.0 | 7.0 | 0.00 | 0.00 | 0.00 | 80 | 1011.5 |
| 20260509141332 | 59 | 212 | 3.0 | 7.0 | 0.00 | 0.00 | 0.00 | 79 | 1011.4 |
| 20260509141053 | 60 | 239 | 3.0 | 10.0 | 0.00 | 0.00 | 0.00 | 78 | 1011.4 |
| 20260509140817 | 60 | 187 | 4.0 | 10.0 | 0.00 | 0.00 | 0.00 | 77 | 1011.4 |
| 20260509135826 | 60 | 200 | 3.0 | 7.0 | 0.00 | 0.00 | 0.00 | 77 | 1011.3 |
| 20260509135605 | 60 | 190 | 3.0 | 8.0 | 0.00 | 0.00 | 0.00 | 77 | 1011.3 |
| 20260509135430 | 60 | 216 | 3.0 | 8.0 | 0.00 | 0.00 | 0.00 | 77 | 1011.3 |
| 20260509134559 | 60 | 167 | 4.0 | 8.0 | 0.00 | 0.00 | 0.00 | 77 | 1011.2 |
| 20260509133831 | 60 | 201 | 3.0 | 8.0 | 0.00 | 0.00 | 0.00 | 76 | 1011.0 |
| 20260509133328 | 60 | 182 | 3.0 | 7.0 | 0.00 | 0.00 | 0.00 | 77 | 1011.0 |
| 20260509133306 | 60 | 180 | 3.0 | 9.0 | 0.00 | 0.00 | 0.00 | 77 | 1011.0 |
| 20260509132331 | 60 | 164 | 4.0 | 9.0 | 0.00 | 0.00 | 0.00 | 76 | 1011.1 |
| 20260509132056 | 60 | 228 | 5.0 | 9.0 | 0.00 | 0.00 | 0.00 | 76 | 1011.1 |
| 20260509131328 | 60 | 175 | 5.0 | 9.0 | 0.00 | 0.00 | 0.00 | 76 | 1011.1 |
| 20260509130828 | 60 | 190 | 4.0 | 8.0 | 0.00 | 0.00 | 0.00 | 76 | 1011.1 |
| 20260509130543 | 60 | 211 | 3.0 | 6.0 | 0.00 | 0.00 | 0.00 | 76 | 1011.1 |
| 20260509130036 | 59 | 193 | 3.0 | 6.0 | 0.00 | 0.00 | 0.00 | 77 | 1011.1 |
| 20260509125311 | 59 | 225 | 3.0 | 9.0 | 0.00 | 0.00 | 0.00 | 78 | 1011.1 |
| 20260509124804 | 59 | 145 | 3.0 | 9.0 | 0.00 | 0.00 | 0.00 | 78 | 1011.1 |
| 20260509124253 | 58 | 91 | 2.0 | 8.0 | 0.00 | 0.00 | 0.00 | 79 | 1011.0 |
| 20260509124014 | 58 | 144 | 2.0 | 8.0 | 0.00 | 0.00 | 0.00 | 79 | 1010.9 |
| 20260509123245 | 58 | 150 | 1.0 | 5.0 | 0.00 | 0.00 | 0.00 | 79 | 1011.0 |
| 20260509122748 | 58 | 186 | 0.0 | 3.0 | 0.00 | 0.00 | 0.00 | 80 | 1011.0 |
| 20260509122249 | 58 | 188 | 0.0 | 1.0 | 0.00 | 0.00 | 0.00 | 81 | 1011.2 |
| 20260509121745 | 57 | 188 | 0.0 | 1.0 | 0.00 | 0.00 | 0.00 | 82 | 1011.2 |
| 20260509121244 | 57 | 188 | 0.0 | 0.0 | 0.00 | 0.00 | 0.00 | 83 | 1011.1 |
| 20260509120754 | 56 | 188 | 0.0 | 0.0 | 0.00 | 0.00 | 0.00 | 84 | 1011.1 |
| 20260509120238 | 56 | 188 | 0.0 | 0.0 | 0.00 | 0.00 | 0.00 | 84 | 1011.1 |
| 20260509115741 | 56 | 188 | 0.0 | 2.0 | 0.00 | 0.00 | 0.00 | 84 | 1011.0 |
| 20260509115238 | 56 | 188 | 0.0 | 2.0 | 0.00 | 0.00 | 0.00 | 84 | 1011.0 |
| 20260509114741 | 56 | 188 | 0.0 | 1.0 | 0.00 | 0.00 | 0.00 | 84 | 1011.2 |
| 20260509114237 | 56 | 188 | 0.0 | 0.0 | 0.00 | 0.00 | 0.00 | 84 | 1011.1 |
| 20260509114005 | 55 | 188 | 0.0 | 0.0 | 0.00 | 0.00 | 0.00 | 84 | 1011.0 |
| 20260509113238 | 55 | 188 | 0.0 | 0.0 | 0.00 | 0.00 | 0.00 | 84 | 1010.9 |
| 20260509112736 | 55 | 188 | 0.0 | 0.0 | 0.00 | 0.00 | 0.00 | 84 | 1010.9 |
| 20260509112715 | 55 | 188 | 0.0 | 0.0 | 0.00 | 0.00 | 0.00 | 84 | 1010.9 |
| 20260509111956 | 55 | 188 | 0.0 | 0.0 | 0.00 | 0.00 | 0.00 | 84 | 1011.0 |
| 20260509111235 | 55 | 188 | 0.0 | 1.0 | 0.00 | 0.00 | 0.00 | 84 | 1011.0 |
| 20260509110737 | 55 | 188 | 0.0 | 1.0 | 0.00 | 0.00 | 0.00 | 84 | 1011.0 |
| 20260509110459 | 55 | 188 | 0.0 | 2.0 | 0.00 | 0.00 | 0.00 | 84 | 1010.9 |
| 20260509110004 | 55 | 188 | 0.0 | 2.0 | 0.00 | 0.00 | 0.00 | 84 | 1010.8 |
| 20260509105239 | 54 | 188 | 0.0 | 0.0 | 0.00 | 0.00 | 0.00 | 85 | 1010.8 |
| 20260509104742 | 54 | 188 | 0.0 | 0.0 | 0.00 | 0.00 | 0.00 | 85 | 1010.8 |
| 20260509104242 | 54 | 188 | 0.0 | 2.0 | 0.00 | 0.00 | 0.00 | 85 | 1010.8 |
| 20260509103741 | 54 | 188 | 0.0 | 2.0 | 0.00 | 0.00 | 0.00 | 85 | 1010.7 |
| 20260509103239 | 54 | 188 | 0.0 | 1.0 | 0.00 | 0.00 | 0.00 | 85 | 1010.9 |
| 20260509102740 | 53 | 190 | 0.0 | 0.0 | 0.00 | 0.00 | 0.00 | 85 | 1010.7 |
| 20260509102514 | 54 | 190 | 0.0 | 0.0 | 0.00 | 0.00 | 0.00 | 85 | 1010.7 |
| 20260509101739 | 54 | 190 | 0.0 | 0.0 | 0.00 | 0.00 | 0.00 | 84 | 1010.7 |
| 20260509101235 | 54 | 190 | 0.0 | 0.0 | 0.00 | 0.00 | 0.00 | 85 | 1010.6 |
| 20260509100737 | 54 | 190 | 0.0 | 0.0 | 0.00 | 0.00 | 0.00 | 84 | 1010.6 |
| 20260509100235 | 54 | 190 | 0.0 | 2.0 | 0.00 | 0.00 | 0.00 | 84 | 1010.6 |
| 20260509100009 | 54 | 190 | 0.0 | 2.0 | 0.00 | 0.00 | 0.00 | 85 | 1010.5 |
| 20260509095235 | 54 | 190 | 0.0 | 1.0 | 0.00 | 0.00 | 0.00 | 84 | 1010.4 |
| 20260509094735 | 54 | 190 | 0.0 | 2.0 | 0.00 | 0.00 | 0.00 | 84 | 1010.5 |
| 20260509094235 | 53 | 190 | 0.0 | 2.0 | 0.00 | 0.00 | 0.00 | 84 | 1010.5 |
| 20260509093736 | 53 | 190 | 0.0 | 0.0 | 0.00 | 0.00 | 0.00 | 84 | 1010.5 |
| 20260509093232 | 53 | 190 | 0.0 | 0.0 | 0.00 | 0.00 | 0.00 | 84 | 1010.6 |
| 20260509092736 | 54 | 190 | 0.0 | 0.0 | 0.00 | 0.00 | 0.00 | 84 | 1010.7 |
| 20260509092232 | 54 | 190 | 0.0 | 2.0 | 0.00 | 0.00 | 0.00 | 84 | 1010.7 |
| 20260509091733 | 54 | 190 | 0.0 | 2.0 | 0.00 | 0.00 | 0.00 | 84 | 1010.7 |
| 20260509091228 | 53 | 190 | 0.0 | 1.0 | 0.00 | 0.00 | 0.00 | 83 | 1010.7 |
| 20260509090726 | 53 | 190 | 0.0 | 0.0 | 0.00 | 0.00 | 0.00 | 83 | 1010.7 |
| 20260509090238 | 54 | 190 | 0.0 | 0.0 | 0.00 | 0.00 | 0.00 | 83 | 1010.7 |
| 20260509085948 | 54 | 190 | 0.0 | 1.0 | 0.00 | 0.00 | 0.00 | 83 | 1010.7 |
| 20260509085219 | 53 | 190 | 0.0 | 1.0 | 0.00 | 0.00 | 0.00 | 83 | 1010.7 |
| 20260509084723 | 54 | 190 | 0.0 | 1.0 | 0.00 | 0.00 | 0.00 | 83 | 1010.9 |
| 20260509084225 | 54 | 192 | 0.0 | 2.0 | 0.00 | 0.00 | 0.00 | 83 | 1010.8 |
| 20260509083718 | 53 | 192 | 0.0 | 2.0 | 0.00 | 0.00 | 0.00 | 82 | 1010.9 |
| 20260509083210 | 53 | 192 | 0.0 | 2.0 | 0.00 | 0.00 | 0.00 | 82 | 1010.9 |
| 20260509082718 | 54 | 192 | 0.0 | 1.0 | 0.00 | 0.00 | 0.00 | 82 | 1010.9 |
| 20260509082158 | 54 | 192 | 0.0 | 3.0 | 0.00 | 0.00 | 0.00 | 81 | 1011.0 |
| 20260509081648 | 53 | 192 | 1.0 | 3.0 | 0.00 | 0.00 | 0.00 | 81 | 1011.0 |
| 20260509081145 | 53 | 193 | 1.0 | 4.0 | 0.00 | 0.00 | 0.00 | 81 | 1011.0 |
| 20260509081127 | 53 | 193 | 0.0 | 4.0 | 0.00 | 0.00 | 0.00 | 81 | 1011.0 |
| 20260509080134 | 53 | 212 | 0.0 | 2.0 | 0.00 | 0.00 | 0.00 | 80 | 1011.0 |
| 20260509075627 | 53 | 211 | 0.0 | 2.0 | 0.00 | 0.00 | 0.00 | 80 | 1011.0 |
| 20260509075123 | 53 | 211 | 1.0 | 3.0 | 0.00 | 0.00 | 0.00 | 80 | 1011.1 |
| 20260509074619 | 53 | 211 | 1.0 | 4.0 | 0.00 | 0.00 | 0.00 | 80 | 1011.2 |
| 20260509074111 | 53 | 213 | 2.0 | 4.0 | 0.00 | 0.00 | 0.00 | 79 | 1011.2 |
| 20260509073605 | 53 | 129 | 1.0 | 4.0 | 0.00 | 0.00 | 0.00 | 79 | 1011.3 |
| 20260509073324 | 53 | 128 | 2.0 | 4.0 | 0.00 | 0.00 | 0.00 | 79 | 1011.3 |
| 20260509072553 | 53 | 128 | 2.0 | 4.0 | 0.00 | 0.00 | 0.00 | 79 | 1011.3 |
| 20260509072539 | 53 | 128 | 2.0 | 4.0 | 0.00 | 0.00 | 0.00 | 79 | 1011.3 |
| 20260509071540 | 53 | 106 | 2.0 | 8.0 | 0.00 | 0.00 | 0.00 | 79 | 1011.1 |
| 20260509071034 | 53 | 151 | 3.0 | 8.0 | 0.00 | 0.00 | 0.00 | 79 | 1011.0 |
| 20260509070528 | 53 | 125 | 3.0 | 7.0 | 0.00 | 0.00 | 0.00 | 79 | 1010.8 |
| 20260509070244 | 53 | 93 | 3.0 | 7.0 | 0.00 | 0.00 | 0.00 | 79 | 1010.9 |
| 20260509065516 | 53 | 128 | 3.0 | 7.0 | 0.00 | 0.00 | 0.00 | 79 | 1010.9 |
| 20260509065011 | 53 | 140 | 3.0 | 7.0 | 0.00 | 0.00 | 0.00 | 78 | 1010.9 |
| 20260509064506 | 53 | 146 | 3.0 | 6.0 | 0.00 | 0.00 | 0.00 | 78 | 1011.0 |
| 20260509063959 | 53 | 140 | 2.0 | 6.0 | 0.00 | 0.00 | 0.00 | 78 | 1011.1 |
| 20260509063724 | 53 | 125 | 2.0 | 6.0 | 0.00 | 0.00 | 0.00 | 78 | 1011.1 |
| 20260509062948 | 53 | 124 | 2.0 | 6.0 | 0.00 | 0.00 | 0.00 | 78 | 1011.3 |
| 20260509062453 | 53 | 113 | 2.0 | 4.0 | 0.00 | 0.00 | 0.00 | 78 | 1011.2 |
| 20260509061934 | 53 | 140 | 1.0 | 4.0 | 0.00 | 0.00 | 0.00 | 78 | 1011.3 |
| 20260509061428 | 53 | 145 | 1.0 | 3.0 | 0.00 | 0.00 | 0.00 | 78 | 1011.4 |
| 20260509060924 | 53 | 145 | 1.0 | 5.0 | 0.00 | 0.00 | 0.00 | 78 | 1011.5 |
| 20260509060416 | 53 | 145 | 1.0 | 5.0 | 0.00 | 0.00 | 0.00 | 78 | 1011.6 |
| 20260509055915 | 53 | 153 | 0.0 | 1.0 | 0.00 | 0.00 | 0.00 | 77 | 1011.8 |
| 20260509055413 | 54 | 153 | 0.0 | 3.0 | 0.00 | 0.00 | 0.00 | 77 | 1011.7 |
| 20260509055356 | 54 | 153 | 1.0 | 3.0 | 0.00 | 0.00 | 0.00 | 76 | 1011.8 |
| 20260509054643 | 54 | 153 | 0.0 | 2.0 | 0.00 | 0.00 | 0.00 | 76 | 1011.8 |
| 20260509053908 | 55 | 153 | 0.0 | 2.0 | 0.00 | 0.00 | 0.00 | 75 | 1011.9 |
| 20260509053408 | 55 | 153 | 0.0 | 2.0 | 0.00 | 0.00 | 0.00 | 74 | 1011.9 |
| 20260509053133 | 56 | 153 | 1.0 | 5.0 | 0.00 | 0.00 | 0.00 | 73 | 1012.0 |
| 20260509052408 | 56 | 153 | 2.0 | 6.0 | 0.00 | 0.00 | 0.00 | 72 | 1011.9 |
| 20260509051904 | 57 | 161 | 3.0 | 9.0 | 0.00 | 0.00 | 0.00 | 71 | 1012.0 |
| 20260509051402 | 57 | 148 | 4.0 | 10.0 | 0.00 | 0.00 | 0.00 | 71 | 1012.0 |
| 20260509050902 | 57 | 221 | 3.0 | 10.0 | 0.00 | 0.00 | 0.00 | 72 | 1012.1 |
| 20260509050622 | 57 | 160 | 2.0 | 7.0 | 0.00 | 0.00 | 0.00 | 72 | 1012.1 |
| 20260509045902 | 57 | 136 | 2.0 | 4.0 | 0.00 | 0.00 | 0.00 | 71 | 1012.1 |
| 20260509045619 | 57 | 136 | 2.0 | 5.0 | 0.00 | 0.00 | 0.00 | 71 | 1012.1 |
| 20260509045125 | 57 | 134 | 2.0 | 5.0 | 0.00 | 0.00 | 0.00 | 72 | 1012.0 |
| 20260509044358 | 57 | 136 | 2.0 | 4.0 | 0.00 | 0.00 | 0.00 | 72 | 1012.1 |
| 20260509044124 | 57 | 135 | 2.0 | 7.0 | 0.00 | 0.00 | 0.00 | 73 | 1012.2 |
| 20260509043358 | 56 | 134 | 2.0 | 7.0 | 0.00 | 0.00 | 0.00 | 74 | 1012.2 |
| 20260509042853 | 56 | 175 | 0.0 | 4.0 | 0.00 | 0.00 | 0.00 | 76 | 1012.2 |
| 20260509042617 | 55 | 235 | 0.0 | 0.0 | 0.00 | 0.00 | 0.00 | 77 | 1012.2 |
| 20260509041841 | 55 | 236 | 0.0 | 1.0 | 0.00 | 0.00 | 0.00 | 76 | 1012.1 |
| 20260509041335 | 54 | 243 | 0.0 | 1.0 | 0.00 | 0.00 | 0.00 | 76 | 1012.1 |
| 20260509041046 | 54 | 242 | 0.0 | 0.0 | 0.00 | 0.00 | 0.00 | 77 | 1012.2 |
| 20260509040322 | 54 | 242 | 0.0 | 0.0 | 0.00 | 0.00 | 0.00 | 77 | 1012.1 |
| 20260509035815 | 54 | 242 | 0.0 | 0.0 | 0.00 | 0.00 | 0.00 | 76 | 1012.1 |
| 20260509035310 | 54 | 242 | 0.0 | 2.0 | 0.00 | 0.00 | 0.00 | 76 | 1012.2 |
| 20260509034803 | 54 | 242 | 1.0 | 2.0 | 0.00 | 0.00 | 0.00 | 76 | 1012.1 |
| 20260509034259 | 54 | 242 | 1.0 | 3.0 | 0.00 | 0.00 | 0.00 | 75 | 1012.1 |
| 20260509033755 | 54 | 242 | 1.0 | 3.0 | 0.00 | 0.00 | 0.00 | 75 | 1012.3 |
| 20260509033255 | 54 | 243 | 0.0 | 0.0 | 0.00 | 0.00 | 0.00 | 74 | 1012.2 |
| 20260509032754 | 54 | 243 | 0.0 | 0.0 | 0.00 | 0.00 | 0.00 | 73 | 1012.0 |
| 20260509032254 | 55 | 243 | 0.0 | 0.0 | 0.00 | 0.00 | 0.00 | 72 | 1012.2 |
| 20260509031755 | 55 | 242 | 0.0 | 0.0 | 0.00 | 0.00 | 0.00 | 72 | 1012.2 |
| 20260509031255 | 56 | 242 | 0.0 | 0.0 | 0.00 | 0.00 | 0.00 | 71 | 1012.4 |
| 20260509030755 | 56 | 242 | 0.0 | 0.0 | 0.00 | 0.00 | 0.00 | 71 | 1012.5 |
| 20260509030256 | 56 | 242 | 0.0 | 0.0 | 0.00 | 0.00 | 0.00 | 72 | 1012.6 |
| 20260509025753 | 56 | 243 | 0.0 | 0.0 | 0.00 | 0.00 | 0.00 | 72 | 1012.8 |
| 20260509025252 | 56 | 243 | 0.0 | 0.0 | 0.00 | 0.00 | 0.00 | 71 | 1012.7 |
| 20260509024754 | 56 | 243 | 0.0 | 0.0 | 0.00 | 0.00 | 0.00 | 69 | 1012.7 |
| 20260509024252 | 56 | 243 | 0.0 | 0.0 | 0.00 | 0.00 | 0.00 | 69 | 1012.7 |
| 20260509024013 | 56 | 243 | 0.0 | 0.0 | 0.00 | 0.00 | 0.00 | 68 | 1012.8 |
| 20260509023250 | 56 | 243 | 0.0 | 0.0 | 0.00 | 0.00 | 0.00 | 68 | 1012.7 |
| 20260509022751 | 56 | 243 | 0.0 | 0.0 | 0.00 | 0.00 | 0.00 | 67 | 1012.6 |
| 20260509022513 | 56 | 242 | 0.0 | 0.0 | 0.00 | 0.00 | 0.00 | 66 | 1012.5 |
| 20260509021749 | 56 | 242 | 0.0 | 0.0 | 0.00 | 0.00 | 0.00 | 65 | 1012.5 |
| 20260509021512 | 56 | 242 | 0.0 | 0.0 | 0.00 | 0.00 | 0.00 | 65 | 1012.3 |
| 20260509020736 | 56 | 242 | 0.0 | 0.0 | 0.00 | 0.00 | 0.00 | 65 | 1012.3 |
| 20260509020235 | 56 | 242 | 0.0 | 0.0 | 0.00 | 0.00 | 0.00 | 66 | 1012.3 |
| 20260509015734 | 56 | 243 | 0.0 | 0.0 | 0.00 | 0.00 | 0.00 | 66 | 1012.3 |
| 20260509015233 | 56 | 243 | 0.0 | 0.0 | 0.00 | 0.00 | 0.00 | 66 | 1012.4 |
| 20260509014732 | 56 | 243 | 0.0 | 0.0 | 0.00 | 0.00 | 0.00 | 66 | 1012.4 |
| 20260509014231 | 56 | 243 | 0.0 | 0.0 | 0.00 | 0.00 | 0.00 | 65 | 1012.3 |
| 20260509013729 | 56 | 243 | 0.0 | 0.0 | 0.00 | 0.00 | 0.00 | 66 | 1012.2 |
| 20260509013230 | 57 | 243 | 0.0 | 0.0 | 0.00 | 0.00 | 0.00 | 64 | 1012.2 |
| 20260509012947 | 57 | 243 | 0.0 | 0.0 | 0.00 | 0.00 | 0.00 | 62 | 1012.1 |
| 20260509012441 | 57 | 242 | 0.0 | 0.0 | 0.00 | 0.00 | 0.00 | 63 | 1012.2 |
| 20260509012323 | 57 | 243 | 0.0 | 0.0 | 0.00 | 0.00 | 0.00 | 62 | 1012.1 |
| 20260509011231 | 57 | 243 | 0.0 | 0.0 | 0.00 | 0.00 | 0.00 | 63 | 1012.0 |
| 20260509010726 | 56 | 243 | 0.0 | 0.0 | 0.00 | 0.00 | 0.00 | 62 | 1011.9 |
| 20260509010226 | 56 | 243 | 0.0 | 0.0 | 0.00 | 0.00 | 0.00 | 62 | 1011.8 |
| 20260509005726 | 57 | 243 | 0.0 | 0.0 | 0.00 | 0.00 | 0.00 | 60 | 1011.8 |
| 20260509005225 | 57 | 243 | 0.0 | 0.0 | 0.00 | 0.00 | 0.00 | 59 | 1011.7 |
| 20260509004721 | 57 | 243 | 0.0 | 0.0 | 0.00 | 0.00 | 0.00 | 58 | 1011.5 |
| 20260509004220 | 58 | 243 | 0.0 | 0.0 | 0.00 | 0.00 | 0.00 | 58 | 1011.4 |
| 20260509003720 | 58 | 243 | 0.0 | 0.0 | 0.00 | 0.00 | 0.00 | 58 | 1011.5 |
| 20260509003220 | 59 | 243 | 0.0 | 0.0 | 0.00 | 0.00 | 0.00 | 56 | 1011.4 |
| 20260509002720 | 59 | 243 | 0.0 | 0.0 | 0.00 | 0.00 | 0.00 | 54 | 1011.3 |
| 20260509002444 | 60 | 243 | 0.0 | 0.0 | 0.00 | 0.00 | 0.00 | 52 | 1011.2 |
| 20260509001717 | 61 | 243 | 0.0 | 0.0 | 0.00 | 0.00 | 0.00 | 52 | 1011.2 |
| 20260509001219 | 61 | 243 | 0.0 | 0.0 | 0.00 | 0.00 | 0.00 | 50 | 1011.1 |
| 20260509000732 | 62 | 243 | 0.0 | 0.0 | 0.00 | 0.00 | 0.00 | 50 | 1011.0 |
| 20260509000659 | 62 | 243 | 0.0 | 0.0 | 0.00 | 0.00 | 0.00 | 48 | 1011.0 |
| 20260508235715 | 63 | 242 | 1.0 | 3.0 | 0.00 | 0.00 | 0.00 | 47 | 1011.0 |
| 20260508235215 | 63 | 242 | 1.0 | 3.0 | 0.00 | 0.00 | 0.00 | 46 | 1011.0 |
| 20260508234715 | 64 | 242 | 1.0 | 3.0 | 0.00 | 0.00 | 0.00 | 45 | 1011.0 |
| 20260508234435 | 64 | 242 | 2.0 | 3.0 | 0.00 | 0.00 | 0.00 | 45 | 1010.9 |
| 20260508233713 | 64 | 242 | 2.0 | 7.0 | 0.00 | 0.00 | 0.00 | 45 | 1010.8 |
| 20260508233214 | 64 | 242 | 2.0 | 7.0 | 0.00 | 0.00 | 0.00 | 45 | 1010.8 |
| 20260508232714 | 64 | 266 | 2.0 | 6.0 | 0.00 | 0.00 | 0.00 | 45 | 1010.7 |
| 20260508232214 | 64 | 277 | 1.0 | 3.0 | 0.00 | 0.00 | 0.00 | 45 | 1010.7 |
| 20260508231714 | 64 | 278 | 1.0 | 6.0 | 0.00 | 0.00 | 0.00 | 45 | 1010.6 |
| 20260508231213 | 64 | 278 | 2.0 | 6.0 | 0.00 | 0.00 | 0.00 | 45 | 1010.6 |
| 20260508230713 | 64 | 273 | 2.0 | 4.0 | 0.00 | 0.00 | 0.00 | 45 | 1010.6 |
| 20260508230214 | 64 | 258 | 2.0 | 8.0 | 0.00 | 0.00 | 0.00 | 44 | 1010.6 |
| 20260508225935 | 64 | 256 | 2.0 | 8.0 | 0.00 | 0.00 | 0.00 | 44 | 1010.6 |
| 20260508225703 | 64 | 264 | 2.0 | 8.0 | 0.00 | 0.00 | 0.00 | 44 | 1010.5 |
| 20260508224713 | 64 | 246 | 2.0 | 8.0 | 0.00 | 0.00 | 0.00 | 42 | 1010.5 |
| 20260508224213 | 65 | 281 | 3.0 | 7.0 | 0.00 | 0.00 | 0.00 | 44 | 1010.5 |
| 20260508224207 | 65 | 242 | 3.0 | 8.0 | 0.00 | 0.00 | 0.00 | 42 | 1010.4 |
| 20260508223213 | 65 | 164 | 3.0 | 8.0 | 0.00 | 0.00 | 0.00 | 44 | 1010.4 |
| 20260508222714 | 65 | 259 | 3.0 | 9.0 | 0.00 | 0.00 | 0.00 | 42 | 1010.4 |
| 20260508222217 | 65 | 256 | 2.0 | 9.0 | 0.00 | 0.00 | 0.00 | 41 | 1010.4 |
| 20260508221707 | 65 | 265 | 3.0 | 8.0 | 0.00 | 0.00 | 0.00 | 43 | 1010.5 |
| 20260508221426 | 65 | 274 | 2.0 | 8.0 | 0.00 | 0.00 | 0.00 | 43 | 1010.5 |
| 20260508220659 | 65 | 259 | 2.0 | 7.0 | 0.00 | 0.00 | 0.00 | 43 | 1010.5 |
| 20260508220152 | 65 | 255 | 2.0 | 6.0 | 0.00 | 0.00 | 0.00 | 42 | 1010.4 |
| 20260508215921 | 65 | 244 | 2.0 | 8.0 | 0.00 | 0.00 | 0.00 | 42 | 1010.5 |
| 20260508215411 | 65 | 260 | 2.0 | 8.0 | 0.00 | 0.00 | 0.00 | 43 | 1010.5 |
| 20260508214652 | 65 | 281 | 2.0 | 7.0 | 0.00 | 0.00 | 0.00 | 42 | 1010.4 |
| 20260508214153 | 65 | 255 | 3.0 | 9.0 | 0.00 | 0.00 | 0.00 | 42 | 1010.4 |
| 20260508213923 | 65 | 261 | 3.0 | 9.0 | 0.00 | 0.00 | 0.00 | 40 | 1010.5 |
| 20260508213416 | 65 | 267 | 3.0 | 7.0 | 0.00 | 0.00 | 0.00 | 41 | 1010.4 |
| 20260508212655 | 65 | 269 | 3.0 | 9.0 | 0.00 | 0.00 | 0.00 | 41 | 1010.3 |
| 20260508212154 | 66 | 261 | 4.0 | 12.0 | 0.00 | 0.00 | 0.00 | 40 | 1010.3 |
| 20260508212139 | 66 | 243 | 4.0 | 16.0 | 0.00 | 0.00 | 0.00 | 38 | 1010.4 |
| 20260508211417 | 66 | 270 | 3.0 | 16.0 | 0.00 | 0.00 | 0.00 | 39 | 1010.4 |
| 20260508210658 | 66 | 219 | 2.0 | 8.0 | 0.00 | 0.00 | 0.00 | 40 | 1010.3 |
| 20260508210155 | 66 | 232 | 2.0 | 7.0 | 0.00 | 0.00 | 0.00 | 43 | 1010.2 |
| 20260508205655 | 67 | 275 | 4.0 | 10.0 | 0.00 | 0.00 | 0.00 | 40 | 1010.2 |
| 20260508205151 | 68 | 231 | 4.0 | 10.0 | 0.00 | 0.00 | 0.00 | 37 | 1010.3 |
| 20260508204652 | 69 | 266 | 4.0 | 10.0 | 0.00 | 0.00 | 0.00 | 40 | 1010.2 |
| 20260508204144 | 68 | 11 | 4.0 | 10.0 | 0.00 | 0.00 | 0.00 | 40 | 1010.2 |
| 20260508203639 | 68 | 270 | 4.0 | 14.0 | 0.00 | 0.00 | 0.00 | 39 | 1010.3 |
| 20260508203132 | 66 | 265 | 3.0 | 14.0 | 0.00 | 0.00 | 0.00 | 41 | 1010.4 |
| 20260508202627 | 67 | 262 | 4.0 | 10.0 | 0.00 | 0.00 | 0.00 | 39 | 1010.4 |
| 20260508202122 | 66 | 252 | 5.0 | 10.0 | 0.00 | 0.00 | 0.00 | 37 | 1010.5 |